sensor_id;sensor_type;location;lat;lon;timestamp;P1;durP1;ratioP1;P2;durP2;ratioP2
26774;SDS011;14362;51.902;7.626;2022-11-04T00:00:41;5.38;;;3.63;;
26774;SDS011;14362;51.902;7.626;2022-11-04T00:04:43;4.85;;;4.35;;
26774;SDS011;14362;51.902;7.626;2022-11-04T00:08:46;5.80;;;4.43;;
26774;SDS011;14362;51.902;7.626;2022-11-04T00:12:50;4.47;;;4.07;;
26774;SDS011;14362;51.902;7.626;2022-11-04T00:16:53;4.93;;;3.60;;
26774;SDS011;14362;51.902;7.626;2022-11-04T00:21:12;3.22;;;2.70;;
26774;SDS011;14362;51.902;7.626;2022-11-04T00:25:31;1.95;;;1.75;;
26774;SDS011;14362;51.902;7.626;2022-11-04T00:29:51;3.45;;;2.25;;
26774;SDS011;14362;51.902;7.626;2022-11-04T00:33:53;1.85;;;1.75;;
26774;SDS011;14362;51.902;7.626;2022-11-04T00:37:56;2.42;;;2.22;;
26774;SDS011;14362;51.902;7.626;2022-11-04T00:41:57;2.67;;;2.35;;
26774;SDS011;14362;51.902;7.626;2022-11-04T00:46:00;2.97;;;2.40;;
26774;SDS011;14362;51.902;7.626;2022-11-04T00:50:01;2.80;;;2.15;;
26774;SDS011;14362;51.902;7.626;2022-11-04T00:54:03;2.30;;;2.10;;
26774;SDS011;14362;51.902;7.626;2022-11-04T00:58:05;2.30;;;2.00;;
26774;SDS011;14362;51.902;7.626;2022-11-04T01:02:08;4.38;;;2.08;;
26774;SDS011;14362;51.902;7.626;2022-11-04T01:06:10;2.15;;;1.80;;
26774;SDS011;14362;51.902;7.626;2022-11-04T01:10:11;3.17;;;1.80;;
26774;SDS011;14362;51.902;7.626;2022-11-04T01:14:13;2.20;;;2.00;;
26774;SDS011;14362;51.902;7.626;2022-11-04T01:18:15;2.63;;;2.42;;
26774;SDS011;14362;51.902;7.626;2022-11-04T01:22:17;2.90;;;2.55;;
26774;SDS011;14362;51.902;7.626;2022-11-04T01:26:19;4.53;;;3.10;;
26774;SDS011;14362;51.902;7.626;2022-11-04T01:30:22;5.60;;;3.42;;
26774;SDS011;14362;51.902;7.626;2022-11-04T01:34:25;4.00;;;3.70;;
26774;SDS011;14362;51.902;7.626;2022-11-04T01:38:27;6.13;;;4.45;;
26774;SDS011;14362;51.902;7.626;2022-11-04T01:42:29;4.78;;;4.38;;
26774;SDS011;14362;51.902;7.626;2022-11-04T01:46:32;5.03;;;4.53;;
26774;SDS011;14362;51.902;7.626;2022-11-04T01:50:39;5.15;;;4.75;;
26774;SDS011;14362;51.902;7.626;2022-11-04T01:54:40;6.53;;;4.60;;
26774;SDS011;14362;51.902;7.626;2022-11-04T01:58:45;4.97;;;4.50;;
26774;SDS011;14362;51.902;7.626;2022-11-04T02:02:50;4.57;;;4.18;;
26774;SDS011;14362;51.902;7.626;2022-11-04T02:06:58;5.10;;;4.60;;
26774;SDS011;14362;51.902;7.626;2022-11-04T02:15:03;4.50;;;4.10;;
26774;SDS011;14362;51.902;7.626;2022-11-04T02:19:09;6.30;;;4.82;;
26774;SDS011;14362;51.902;7.626;2022-11-04T02:28:03;5.35;;;4.85;;
26774;SDS011;14362;51.902;7.626;2022-11-04T02:32:18;5.75;;;5.25;;
26774;SDS011;14362;51.902;7.626;2022-11-04T02:36:28;6.22;;;5.63;;
26774;SDS011;14362;51.902;7.626;2022-11-04T02:40:38;6.05;;;5.55;;
26774;SDS011;14362;51.902;7.626;2022-11-04T02:44:44;7.00;;;6.30;;
26774;SDS011;14362;51.902;7.626;2022-11-04T02:48:53;6.70;;;6.00;;
26774;SDS011;14362;51.902;7.626;2022-11-04T02:53:01;7.82;;;6.95;;
26774;SDS011;14362;51.902;7.626;2022-11-04T02:57:08;7.57;;;6.95;;
26774;SDS011;14362;51.902;7.626;2022-11-04T03:01:14;7.68;;;6.97;;
26774;SDS011;14362;51.902;7.626;2022-11-04T03:05:20;8.18;;;7.47;;
26774;SDS011;14362;51.902;7.626;2022-11-04T03:09:27;7.70;;;7.00;;
26774;SDS011;14362;51.902;7.626;2022-11-04T03:13:31;8.70;;;7.80;;
26774;SDS011;14362;51.902;7.626;2022-11-04T03:17:38;8.07;;;7.38;;
26774;SDS011;14362;51.902;7.626;2022-11-04T03:21:46;10.90;;;8.23;;
26774;SDS011;14362;51.902;7.626;2022-11-04T03:25:57;8.48;;;7.75;;
26774;SDS011;14362;51.902;7.626;2022-11-04T03:30:07;9.60;;;7.97;;
26774;SDS011;14362;51.902;7.626;2022-11-04T03:34:11;9.77;;;8.38;;
26774;SDS011;14362;51.902;7.626;2022-11-04T03:38:14;8.23;;;7.53;;
26774;SDS011;14362;51.902;7.626;2022-11-04T03:42:16;8.30;;;7.25;;
26774;SDS011;14362;51.902;7.626;2022-11-04T03:46:20;8.93;;;7.70;;
26774;SDS011;14362;51.902;7.626;2022-11-04T03:50:22;9.10;;;7.78;;
26774;SDS011;14362;51.902;7.626;2022-11-04T03:54:28;10.80;;;7.95;;
26774;SDS011;14362;51.902;7.626;2022-11-04T03:58:36;8.48;;;7.57;;
26774;SDS011;14362;51.902;7.626;2022-11-04T04:07:11;9.93;;;7.03;;
26774;SDS011;14362;51.902;7.626;2022-11-04T04:11:18;9.73;;;6.82;;
26774;SDS011;14362;51.902;7.626;2022-11-04T04:15:25;7.57;;;6.35;;
26774;SDS011;14362;51.902;7.626;2022-11-04T04:19:32;10.88;;;6.75;;
26774;SDS011;14362;51.902;7.626;2022-11-04T04:23:34;7.10;;;6.25;;
26774;SDS011;14362;51.902;7.626;2022-11-04T04:27:56;8.65;;;6.40;;
26774;SDS011;14362;51.902;7.626;2022-11-04T04:36:03;9.95;;;5.85;;
26774;SDS011;14362;51.902;7.626;2022-11-04T04:40:09;8.45;;;6.22;;
26774;SDS011;14362;51.902;7.626;2022-11-04T04:44:34;8.25;;;5.90;;
26774;SDS011;14362;51.902;7.626;2022-11-04T04:48:53;10.25;;;6.15;;
26774;SDS011;14362;51.902;7.626;2022-11-04T04:52:55;7.65;;;5.40;;
26774;SDS011;14362;51.902;7.626;2022-11-04T04:56:58;8.88;;;5.55;;
26774;SDS011;14362;51.902;7.626;2022-11-04T05:01:00;5.20;;;4.70;;
26774;SDS011;14362;51.902;7.626;2022-11-04T05:05:04;6.23;;;4.30;;
26774;SDS011;14362;51.902;7.626;2022-11-04T05:09:06;6.75;;;4.32;;
26774;SDS011;14362;51.902;7.626;2022-11-04T05:13:08;7.30;;;4.25;;
26774;SDS011;14362;51.902;7.626;2022-11-04T05:17:30;7.05;;;4.40;;
26774;SDS011;14362;51.902;7.626;2022-11-04T05:21:31;7.07;;;4.07;;
26774;SDS011;14362;51.902;7.626;2022-11-04T05:25:33;11.30;;;4.55;;
26774;SDS011;14362;51.902;7.626;2022-11-04T05:29:34;5.57;;;3.90;;
26774;SDS011;14362;51.902;7.626;2022-11-04T05:33:37;8.98;;;4.65;;
26774;SDS011;14362;51.902;7.626;2022-11-04T05:37:38;9.32;;;4.75;;
26774;SDS011;14362;51.902;7.626;2022-11-04T05:41:40;7.43;;;4.72;;
26774;SDS011;14362;51.902;7.626;2022-11-04T05:45:41;6.40;;;4.57;;
26774;SDS011;14362;51.902;7.626;2022-11-04T05:49:44;9.98;;;4.57;;
26774;SDS011;14362;51.902;7.626;2022-11-04T05:53:45;9.82;;;4.45;;
26774;SDS011;14362;51.902;7.626;2022-11-04T05:57:47;8.02;;;4.82;;
26774;SDS011;14362;51.902;7.626;2022-11-04T06:01:48;11.00;;;5.72;;
26774;SDS011;14362;51.902;7.626;2022-11-04T06:05:51;8.63;;;6.05;;
26774;SDS011;14362;51.902;7.626;2022-11-04T06:09:53;7.95;;;5.68;;
26774;SDS011;14362;51.902;7.626;2022-11-04T06:13:54;9.90;;;6.35;;
26774;SDS011;14362;51.902;7.626;2022-11-04T06:17:57;9.38;;;5.85;;
26774;SDS011;14362;51.902;7.626;2022-11-04T06:21:59;9.00;;;6.07;;
26774;SDS011;14362;51.902;7.626;2022-11-04T06:26:02;9.57;;;6.38;;
26774;SDS011;14362;51.902;7.626;2022-11-04T06:30:04;10.00;;;5.80;;
26774;SDS011;14362;51.902;7.626;2022-11-04T06:34:07;9.98;;;6.40;;
26774;SDS011;14362;51.902;7.626;2022-11-04T06:38:09;12.25;;;6.15;;
26774;SDS011;14362;51.902;7.626;2022-11-04T06:42:11;10.23;;;5.78;;
26774;SDS011;14362;51.902;7.626;2022-11-04T06:46:25;10.98;;;5.45;;
26774;SDS011;14362;51.902;7.626;2022-11-04T06:50:29;8.60;;;4.88;;
26774;SDS011;14362;51.902;7.626;2022-11-04T06:54:31;11.80;;;5.35;;
26774;SDS011;14362;51.902;7.626;2022-11-04T06:58:33;10.57;;;4.82;;
26774;SDS011;14362;51.902;7.626;2022-11-04T07:02:35;11.20;;;4.95;;
26774;SDS011;14362;51.902;7.626;2022-11-04T07:06:38;10.63;;;4.80;;
26774;SDS011;14362;51.902;7.626;2022-11-04T07:10:43;10.43;;;5.32;;
26774;SDS011;14362;51.902;7.626;2022-11-04T07:14:44;8.80;;;5.18;;
26774;SDS011;14362;51.902;7.626;2022-11-04T07:18:46;9.85;;;5.70;;
26774;SDS011;14362;51.902;7.626;2022-11-04T07:22:48;10.30;;;5.80;;
26774;SDS011;14362;51.902;7.626;2022-11-04T07:26:50;7.95;;;4.85;;
26774;SDS011;14362;51.902;7.626;2022-11-04T07:30:54;10.07;;;4.57;;
26774;SDS011;14362;51.902;7.626;2022-11-04T07:34:57;11.88;;;5.32;;
26774;SDS011;14362;51.902;7.626;2022-11-04T07:38:58;10.43;;;4.28;;
26774;SDS011;14362;51.902;7.626;2022-11-04T07:43:02;8.75;;;3.85;;
26774;SDS011;14362;51.902;7.626;2022-11-04T07:47:03;7.47;;;3.88;;
26774;SDS011;14362;51.902;7.626;2022-11-04T07:51:06;9.93;;;4.03;;
26774;SDS011;14362;51.902;7.626;2022-11-04T07:55:08;9.63;;;4.22;;
26774;SDS011;14362;51.902;7.626;2022-11-04T07:59:14;10.25;;;4.20;;
26774;SDS011;14362;51.902;7.626;2022-11-04T08:03:15;13.00;;;4.10;;
26774;SDS011;14362;51.902;7.626;2022-11-04T08:07:17;8.82;;;3.90;;
26774;SDS011;14362;51.902;7.626;2022-11-04T08:11:19;8.32;;;3.65;;
26774;SDS011;14362;51.902;7.626;2022-11-04T08:15:25;5.32;;;3.72;;
26774;SDS011;14362;51.902;7.626;2022-11-04T08:19:28;8.65;;;3.72;;
26774;SDS011;14362;51.902;7.626;2022-11-04T08:23:30;9.40;;;3.75;;
26774;SDS011;14362;51.902;7.626;2022-11-04T08:27:33;8.52;;;3.28;;
26774;SDS011;14362;51.902;7.626;2022-11-04T08:31:36;9.15;;;3.53;;
26774;SDS011;14362;51.902;7.626;2022-11-04T08:35:39;7.03;;;3.00;;
26774;SDS011;14362;51.902;7.626;2022-11-04T08:39:41;6.55;;;3.20;;
26774;SDS011;14362;51.902;7.626;2022-11-04T08:43:43;7.30;;;2.80;;
26774;SDS011;14362;51.902;7.626;2022-11-04T08:47:46;8.32;;;3.20;;
26774;SDS011;14362;51.902;7.626;2022-11-04T08:51:48;7.70;;;3.05;;
26774;SDS011;14362;51.902;7.626;2022-11-04T08:55:55;7.72;;;3.00;;
26774;SDS011;14362;51.902;7.626;2022-11-04T08:59:56;7.90;;;3.28;;
26774;SDS011;14362;51.902;7.626;2022-11-04T09:03:59;7.30;;;3.13;;
26774;SDS011;14362;51.902;7.626;2022-11-04T09:08:01;8.82;;;3.05;;
26774;SDS011;14362;51.902;7.626;2022-11-04T09:12:07;7.82;;;3.20;;
26774;SDS011;14362;51.902;7.626;2022-11-04T09:16:09;8.23;;;3.00;;
26774;SDS011;14362;51.902;7.626;2022-11-04T09:20:14;7.95;;;2.80;;
26774;SDS011;14362;51.902;7.626;2022-11-04T09:24:15;5.93;;;2.85;;
26774;SDS011;14362;51.902;7.626;2022-11-04T09:28:17;11.32;;;3.15;;
26774;SDS011;14362;51.902;7.626;2022-11-04T09:32:18;8.70;;;3.05;;
26774;SDS011;14362;51.902;7.626;2022-11-04T09:36:21;9.10;;;3.50;;
26774;SDS011;14362;51.902;7.626;2022-11-04T09:40:23;9.63;;;3.80;;
26774;SDS011;14362;51.902;7.626;2022-11-04T09:44:25;8.88;;;4.00;;
26774;SDS011;14362;51.902;7.626;2022-11-04T09:48:31;6.38;;;3.20;;
26774;SDS011;14362;51.902;7.626;2022-11-04T09:52:38;10.60;;;3.38;;
26774;SDS011;14362;51.902;7.626;2022-11-04T09:56:44;9.73;;;3.67;;
26774;SDS011;14362;51.902;7.626;2022-11-04T10:00:51;12.32;;;4.15;;
26774;SDS011;14362;51.902;7.626;2022-11-04T10:05:04;10.02;;;3.83;;
26774;SDS011;14362;51.902;7.626;2022-11-04T10:09:19;10.53;;;4.20;;
26774;SDS011;14362;51.902;7.626;2022-11-04T10:13:42;7.07;;;2.88;;
26774;SDS011;14362;51.902;7.626;2022-11-04T10:17:53;8.07;;;3.45;;
26774;SDS011;14362;51.902;7.626;2022-11-04T10:22:06;8.27;;;3.15;;
26774;SDS011;14362;51.902;7.626;2022-11-04T10:26:15;7.78;;;3.92;;
26774;SDS011;14362;51.902;7.626;2022-11-04T10:30:19;14.00;;;3.65;;
26774;SDS011;14362;51.902;7.626;2022-11-04T10:34:24;7.28;;;3.38;;
26774;SDS011;14362;51.902;7.626;2022-11-04T10:38:32;10.77;;;3.30;;
26774;SDS011;14362;51.902;7.626;2022-11-04T10:42:39;10.93;;;3.85;;
26774;SDS011;14362;51.902;7.626;2022-11-04T10:46:44;16.38;;;4.07;;
26774;SDS011;14362;51.902;7.626;2022-11-04T10:50:52;7.90;;;3.47;;
26774;SDS011;14362;51.902;7.626;2022-11-04T10:54:55;8.07;;;3.50;;
26774;SDS011;14362;51.902;7.626;2022-11-04T10:58:58;9.15;;;3.53;;
26774;SDS011;14362;51.902;7.626;2022-11-04T11:03:21;9.65;;;3.80;;
26774;SDS011;14362;51.902;7.626;2022-11-04T11:07:24;8.63;;;3.70;;
26774;SDS011;14362;51.902;7.626;2022-11-04T11:11:37;8.60;;;3.90;;
26774;SDS011;14362;51.902;7.626;2022-11-04T11:15:42;8.05;;;3.28;;
26774;SDS011;14362;51.902;7.626;2022-11-04T11:19:44;10.90;;;3.00;;
26774;SDS011;14362;51.902;7.626;2022-11-04T11:23:49;9.65;;;2.83;;
26774;SDS011;14362;51.902;7.626;2022-11-04T11:27:54;8.38;;;2.97;;
26774;SDS011;14362;51.902;7.626;2022-11-04T11:31:58;12.70;;;3.23;;
26774;SDS011;14362;51.902;7.626;2022-11-04T11:36:01;5.93;;;2.65;;
26774;SDS011;14362;51.902;7.626;2022-11-04T11:40:21;7.10;;;3.40;;
26774;SDS011;14362;51.902;7.626;2022-11-04T11:44:32;6.35;;;2.88;;
26774;SDS011;14362;51.902;7.626;2022-11-04T11:48:39;10.55;;;2.75;;
26774;SDS011;14362;51.902;7.626;2022-11-04T11:52:42;7.30;;;2.88;;
26774;SDS011;14362;51.902;7.626;2022-11-04T11:56:45;13.57;;;2.75;;
26774;SDS011;14362;51.902;7.626;2022-11-04T12:00:50;9.80;;;2.70;;
26774;SDS011;14362;51.902;7.626;2022-11-04T12:04:58;7.68;;;2.13;;
26774;SDS011;14362;51.902;7.626;2022-11-04T12:09:11;7.20;;;2.63;;
26774;SDS011;14362;51.902;7.626;2022-11-04T12:13:23;9.05;;;3.00;;
26774;SDS011;14362;51.902;7.626;2022-11-04T12:17:35;9.65;;;2.70;;
26774;SDS011;14362;51.902;7.626;2022-11-04T12:21:47;8.40;;;2.72;;
26774;SDS011;14362;51.902;7.626;2022-11-04T12:26:03;9.95;;;2.95;;
26774;SDS011;14362;51.902;7.626;2022-11-04T12:30:13;14.80;;;2.65;;
26774;SDS011;14362;51.902;7.626;2022-11-04T12:34:19;9.15;;;2.67;;
26774;SDS011;14362;51.902;7.626;2022-11-04T12:38:38;7.45;;;2.40;;
26774;SDS011;14362;51.902;7.626;2022-11-04T12:42:58;10.43;;;2.80;;
26774;SDS011;14362;51.902;7.626;2022-11-04T12:47:12;7.68;;;2.88;;
26774;SDS011;14362;51.902;7.626;2022-11-04T12:51:25;7.57;;;2.58;;
26774;SDS011;14362;51.902;7.626;2022-11-04T12:55:39;8.02;;;2.42;;
26774;SDS011;14362;51.902;7.626;2022-11-04T12:59:51;8.45;;;2.92;;
26774;SDS011;14362;51.902;7.626;2022-11-04T13:04:14;9.90;;;2.45;;
26774;SDS011;14362;51.902;7.626;2022-11-04T13:08:21;6.43;;;2.67;;
26774;SDS011;14362;51.902;7.626;2022-11-04T13:12:30;7.82;;;2.65;;
26774;SDS011;14362;51.902;7.626;2022-11-04T13:16:37;7.55;;;2.72;;
26774;SDS011;14362;51.902;7.626;2022-11-04T13:20:42;7.45;;;2.83;;
26774;SDS011;14362;51.902;7.626;2022-11-04T13:24:48;8.00;;;2.78;;
26774;SDS011;14362;51.902;7.626;2022-11-04T13:28:55;6.22;;;2.70;;
26774;SDS011;14362;51.902;7.626;2022-11-04T13:33:01;9.38;;;3.25;;
26774;SDS011;14362;51.902;7.626;2022-11-04T13:37:14;7.07;;;3.10;;
26774;SDS011;14362;51.902;7.626;2022-11-04T13:41:28;9.23;;;3.60;;
26774;SDS011;14362;51.902;7.626;2022-11-04T13:45:45;7.93;;;3.70;;
26774;SDS011;14362;51.902;7.626;2022-11-04T13:49:49;8.75;;;3.78;;
26774;SDS011;14362;51.902;7.626;2022-11-04T13:53:52;8.90;;;3.80;;
26774;SDS011;14362;51.902;7.626;2022-11-04T13:57:57;9.65;;;4.65;;
26774;SDS011;14362;51.902;7.626;2022-11-04T14:06:47;7.93;;;4.63;;
26774;SDS011;14362;51.902;7.626;2022-11-04T14:10:58;8.60;;;4.78;;
26774;SDS011;14362;51.902;7.626;2022-11-04T14:15:11;10.32;;;5.10;;
26774;SDS011;14362;51.902;7.626;2022-11-04T14:23:49;10.75;;;4.15;;
26774;SDS011;14362;51.902;7.626;2022-11-04T14:27:52;7.72;;;3.53;;
26774;SDS011;14362;51.902;7.626;2022-11-04T14:31:56;6.18;;;3.28;;
26774;SDS011;14362;51.902;7.626;2022-11-04T14:36:22;8.55;;;2.85;;
26774;SDS011;14362;51.902;7.626;2022-11-04T14:40:27;7.20;;;2.70;;
26774;SDS011;14362;51.902;7.626;2022-11-04T14:44:45;9.93;;;2.55;;
26774;SDS011;14362;51.902;7.626;2022-11-04T14:48:50;6.47;;;2.00;;
26774;SDS011;14362;51.902;7.626;2022-11-04T14:52:57;10.18;;;2.85;;
26774;SDS011;14362;51.902;7.626;2022-11-04T14:57:14;8.18;;;2.80;;
26774;SDS011;14362;51.902;7.626;2022-11-04T15:01:17;7.75;;;2.72;;
26774;SDS011;14362;51.902;7.626;2022-11-04T15:05:22;7.03;;;2.28;;
26774;SDS011;14362;51.902;7.626;2022-11-04T15:09:29;7.78;;;2.65;;
26774;SDS011;14362;51.902;7.626;2022-11-04T15:13:32;8.45;;;2.80;;
26774;SDS011;14362;51.902;7.626;2022-11-04T15:17:35;6.57;;;2.83;;
26774;SDS011;14362;51.902;7.626;2022-11-04T15:21:39;9.68;;;3.30;;
26774;SDS011;14362;51.902;7.626;2022-11-04T15:25:47;6.85;;;3.40;;
26774;SDS011;14362;51.902;7.626;2022-11-04T15:29:53;9.15;;;4.13;;
26774;SDS011;14362;51.902;7.626;2022-11-04T15:33:55;9.85;;;3.55;;
26774;SDS011;14362;51.902;7.626;2022-11-04T15:37:58;11.27;;;3.20;;
26774;SDS011;14362;51.902;7.626;2022-11-04T15:42:05;9.18;;;3.08;;
26774;SDS011;14362;51.902;7.626;2022-11-04T15:46:28;9.27;;;3.25;;
26774;SDS011;14362;51.902;7.626;2022-11-04T15:50:30;8.45;;;3.63;;
26774;SDS011;14362;51.902;7.626;2022-11-04T15:54:32;9.15;;;4.18;;
26774;SDS011;14362;51.902;7.626;2022-11-04T15:58:37;7.33;;;3.40;;
26774;SDS011;14362;51.902;7.626;2022-11-04T16:07:00;9.87;;;3.43;;
26774;SDS011;14362;51.902;7.626;2022-11-04T16:11:08;9.57;;;3.53;;
26774;SDS011;14362;51.902;7.626;2022-11-04T16:19:34;5.75;;;3.50;;
26774;SDS011;14362;51.902;7.626;2022-11-04T16:23:36;5.95;;;3.45;;
26774;SDS011;14362;51.902;7.626;2022-11-04T16:27:44;10.80;;;3.80;;
26774;SDS011;14362;51.902;7.626;2022-11-04T16:31:48;10.52;;;4.18;;
26774;SDS011;14362;51.902;7.626;2022-11-04T16:36:08;12.00;;;4.82;;
26774;SDS011;14362;51.902;7.626;2022-11-04T16:40:22;7.93;;;3.83;;
26774;SDS011;14362;51.902;7.626;2022-11-04T16:44:25;5.68;;;3.60;;
26774;SDS011;14362;51.902;7.626;2022-11-04T16:48:28;7.18;;;4.20;;
26774;SDS011;14362;51.902;7.626;2022-11-04T16:52:29;8.38;;;4.80;;
26774;SDS011;14362;51.902;7.626;2022-11-04T16:56:30;9.52;;;5.20;;
26774;SDS011;14362;51.902;7.626;2022-11-04T17:00:33;8.73;;;6.07;;
26774;SDS011;14362;51.902;7.626;2022-11-04T17:04:36;8.38;;;5.50;;
26774;SDS011;14362;51.902;7.626;2022-11-04T17:08:37;9.75;;;5.88;;
26774;SDS011;14362;51.902;7.626;2022-11-04T17:12:40;14.52;;;6.50;;
26774;SDS011;14362;51.902;7.626;2022-11-04T17:16:43;7.32;;;5.22;;
26774;SDS011;14362;51.902;7.626;2022-11-04T17:20:46;10.85;;;6.32;;
26774;SDS011;14362;51.902;7.626;2022-11-04T17:24:50;10.00;;;6.47;;
26774;SDS011;14362;51.902;7.626;2022-11-04T17:28:52;10.25;;;6.63;;
26774;SDS011;14362;51.902;7.626;2022-11-04T17:32:53;13.70;;;8.30;;
26774;SDS011;14362;51.902;7.626;2022-11-04T17:36:56;11.25;;;7.45;;
26774;SDS011;14362;51.902;7.626;2022-11-04T17:40:58;12.93;;;9.30;;
26774;SDS011;14362;51.902;7.626;2022-11-04T17:45:17;13.85;;;9.15;;
26774;SDS011;14362;51.902;7.626;2022-11-04T17:49:19;11.93;;;8.68;;
26774;SDS011;14362;51.902;7.626;2022-11-04T17:53:23;9.75;;;6.75;;
26774;SDS011;14362;51.902;7.626;2022-11-04T17:57:24;11.27;;;6.60;;
26774;SDS011;14362;51.902;7.626;2022-11-04T18:01:26;9.55;;;6.40;;
26774;SDS011;14362;51.902;7.626;2022-11-04T18:05:28;7.70;;;5.85;;
26774;SDS011;14362;51.902;7.626;2022-11-04T18:09:31;6.45;;;5.60;;
26774;SDS011;14362;51.902;7.626;2022-11-04T18:13:35;10.07;;;6.38;;
26774;SDS011;14362;51.902;7.626;2022-11-04T18:17:36;11.07;;;6.35;;
26774;SDS011;14362;51.902;7.626;2022-11-04T18:21:38;7.82;;;5.72;;
26774;SDS011;14362;51.902;7.626;2022-11-04T18:25:41;8.07;;;5.40;;
26774;SDS011;14362;51.902;7.626;2022-11-04T18:29:43;6.13;;;5.13;;
26774;SDS011;14362;51.902;7.626;2022-11-04T18:33:44;6.85;;;4.80;;
26774;SDS011;14362;51.902;7.626;2022-11-04T18:37:46;7.28;;;4.65;;
26774;SDS011;14362;51.902;7.626;2022-11-04T18:41:48;6.55;;;4.25;;
26774;SDS011;14362;51.902;7.626;2022-11-04T18:45:50;5.93;;;3.55;;
26774;SDS011;14362;51.902;7.626;2022-11-04T18:49:52;4.38;;;3.10;;
26774;SDS011;14362;51.902;7.626;2022-11-04T18:53:54;5.85;;;3.10;;
26774;SDS011;14362;51.902;7.626;2022-11-04T18:57:57;6.68;;;3.20;;
26774;SDS011;14362;51.902;7.626;2022-11-04T19:01:59;7.43;;;3.40;;
26774;SDS011;14362;51.902;7.626;2022-11-04T19:06:03;7.07;;;2.80;;
26774;SDS011;14362;51.902;7.626;2022-11-04T19:10:05;6.07;;;2.78;;
26774;SDS011;14362;51.902;7.626;2022-11-04T19:14:09;3.55;;;2.80;;
26774;SDS011;14362;51.902;7.626;2022-11-04T19:18:13;5.70;;;3.00;;
26774;SDS011;14362;51.902;7.626;2022-11-04T19:22:15;4.72;;;3.10;;
26774;SDS011;14362;51.902;7.626;2022-11-04T19:26:17;6.18;;;3.60;;
26774;SDS011;14362;51.902;7.626;2022-11-04T19:30:22;6.28;;;4.60;;
26774;SDS011;14362;51.902;7.626;2022-11-04T19:34:23;7.63;;;4.68;;
26774;SDS011;14362;51.902;7.626;2022-11-04T19:38:25;6.75;;;4.43;;
26774;SDS011;14362;51.902;7.626;2022-11-04T19:42:27;7.45;;;4.78;;
26774;SDS011;14362;51.902;7.626;2022-11-04T19:46:48;9.00;;;5.43;;
26774;SDS011;14362;51.902;7.626;2022-11-04T19:50:49;14.85;;;4.80;;
26774;SDS011;14362;51.902;7.626;2022-11-04T19:54:51;7.90;;;4.65;;
26774;SDS011;14362;51.902;7.626;2022-11-04T19:58:52;9.45;;;5.72;;
26774;SDS011;14362;51.902;7.626;2022-11-04T20:02:55;11.15;;;6.57;;
26774;SDS011;14362;51.902;7.626;2022-11-04T20:06:57;9.40;;;6.82;;
26774;SDS011;14362;51.902;7.626;2022-11-04T20:11:00;10.30;;;8.18;;
26774;SDS011;14362;51.902;7.626;2022-11-04T20:15:02;12.93;;;9.23;;
26774;SDS011;14362;51.902;7.626;2022-11-04T20:19:05;12.73;;;10.13;;
26774;SDS011;14362;51.902;7.626;2022-11-04T20:23:07;15.35;;;11.15;;
26774;SDS011;14362;51.902;7.626;2022-11-04T20:27:08;13.30;;;11.38;;
26774;SDS011;14362;51.902;7.626;2022-11-04T20:31:14;16.30;;;12.07;;
26774;SDS011;14362;51.902;7.626;2022-11-04T20:35:19;19.40;;;13.55;;
26774;SDS011;14362;51.902;7.626;2022-11-04T20:39:20;18.75;;;13.35;;
26774;SDS011;14362;51.902;7.626;2022-11-04T20:43:22;18.15;;;13.65;;
26774;SDS011;14362;51.902;7.626;2022-11-04T20:47:25;17.55;;;13.77;;
26774;SDS011;14362;51.902;7.626;2022-11-04T20:51:28;21.20;;;14.68;;
26774;SDS011;14362;51.902;7.626;2022-11-04T20:55:31;21.40;;;14.95;;
26774;SDS011;14362;51.902;7.626;2022-11-04T20:59:33;20.77;;;15.20;;
26774;SDS011;14362;51.902;7.626;2022-11-04T21:03:35;18.00;;;15.38;;
26774;SDS011;14362;51.902;7.626;2022-11-04T21:07:38;17.65;;;15.43;;
26774;SDS011;14362;51.902;7.626;2022-11-04T21:11:39;22.63;;;15.98;;
26774;SDS011;14362;51.902;7.626;2022-11-04T21:15:41;19.05;;;15.80;;
26774;SDS011;14362;51.902;7.626;2022-11-04T21:19:43;21.17;;;15.63;;
26774;SDS011;14362;51.902;7.626;2022-11-04T21:23:46;19.23;;;15.85;;
26774;SDS011;14362;51.902;7.626;2022-11-04T21:27:47;18.13;;;15.85;;
26774;SDS011;14362;51.902;7.626;2022-11-04T21:31:49;24.02;;;17.65;;
26774;SDS011;14362;51.902;7.626;2022-11-04T21:35:50;22.35;;;17.80;;
26774;SDS011;14362;51.902;7.626;2022-11-04T21:39:53;23.05;;;18.65;;
26774;SDS011;14362;51.902;7.626;2022-11-04T21:43:54;25.80;;;19.20;;
26774;SDS011;14362;51.902;7.626;2022-11-04T21:47:56;30.42;;;21.77;;
26774;SDS011;14362;51.902;7.626;2022-11-04T21:51:58;31.08;;;23.60;;
26774;SDS011;14362;51.902;7.626;2022-11-04T21:56:04;31.58;;;24.15;;
26774;SDS011;14362;51.902;7.626;2022-11-04T22:00:09;27.23;;;21.88;;
26774;SDS011;14362;51.902;7.626;2022-11-04T22:04:12;28.35;;;23.10;;
26774;SDS011;14362;51.902;7.626;2022-11-04T22:08:14;28.92;;;22.17;;
26774;SDS011;14362;51.902;7.626;2022-11-04T22:12:21;30.55;;;21.25;;
26774;SDS011;14362;51.902;7.626;2022-11-04T22:16:23;27.80;;;22.13;;
26774;SDS011;14362;51.902;7.626;2022-11-04T22:20:26;29.77;;;21.05;;
26774;SDS011;14362;51.902;7.626;2022-11-04T22:24:28;27.48;;;19.85;;
26774;SDS011;14362;51.902;7.626;2022-11-04T22:28:31;28.10;;;21.85;;
26774;SDS011;14362;51.902;7.626;2022-11-04T22:32:33;29.83;;;21.30;;
26774;SDS011;14362;51.902;7.626;2022-11-04T22:36:34;26.98;;;20.48;;
26774;SDS011;14362;51.902;7.626;2022-11-04T22:40:36;29.60;;;21.17;;
26774;SDS011;14362;51.902;7.626;2022-11-04T22:44:39;30.48;;;20.38;;
26774;SDS011;14362;51.902;7.626;2022-11-04T22:48:41;25.30;;;19.65;;
26774;SDS011;14362;51.902;7.626;2022-11-04T22:52:42;32.13;;;20.13;;
26774;SDS011;14362;51.902;7.626;2022-11-04T22:56:44;24.20;;;19.13;;
26774;SDS011;14362;51.902;7.626;2022-11-04T23:00:52;27.58;;;18.73;;
26774;SDS011;14362;51.902;7.626;2022-11-04T23:04:54;24.42;;;18.48;;
26774;SDS011;14362;51.902;7.626;2022-11-04T23:08:55;28.42;;;18.58;;
26774;SDS011;14362;51.902;7.626;2022-11-04T23:12:57;22.77;;;18.85;;
26774;SDS011;14362;51.902;7.626;2022-11-04T23:17:18;24.33;;;18.15;;
26774;SDS011;14362;51.902;7.626;2022-11-04T23:21:38;26.85;;;17.80;;
26774;SDS011;14362;51.902;7.626;2022-11-04T23:25:57;22.67;;;17.38;;
26774;SDS011;14362;51.902;7.626;2022-11-04T23:29:59;25.20;;;16.27;;
26774;SDS011;14362;51.902;7.626;2022-11-04T23:34:20;25.23;;;18.95;;
26774;SDS011;14362;51.902;7.626;2022-11-04T23:38:39;25.50;;;18.50;;
26774;SDS011;14362;51.902;7.626;2022-11-04T23:42:40;24.52;;;17.40;;
26774;SDS011;14362;51.902;7.626;2022-11-04T23:46:42;27.85;;;18.45;;
26774;SDS011;14362;51.902;7.626;2022-11-04T23:51:02;24.15;;;17.98;;
26774;SDS011;14362;51.902;7.626;2022-11-04T23:55:21;25.45;;;16.92;;
26774;SDS011;14362;51.902;7.626;2022-11-04T23:59:40;29.73;;;17.52;;
